DLH9M EDDF-EGCC
Flight info
| Callsign | DLH9M |
|---|---|
| Flight time | 1h 20m |
| Altitude | 34000 |
| Route | OBOKA3D OBOKA Z29 TORNU DCT GALSO Q63 ERING L179 LAM UN57 WELIN T420 ELVOS |
| Aircraft | A35K/H-SDE2E3GHIJ3J4J5LM1ORWXY/LB1D1 |
Departure
| Time | 2026-04-17 07:26 |
|---|---|
| Airport | Frankfurt Main Airport (EDDF) |
Arrival
| Time | 2026-04-17 08:46 |
|---|---|
| Airport | Manchester Airport (EGCC) |
| Time | Latitude | Longitude | Altitude | Speed | Heading |
|---|---|---|---|---|---|
| 2026-04-17 07:20 | 50.04659 | 8.56398 | 362 ft | 0 kts | 250° |
| 2026-04-17 07:20 | 50.04659 | 8.56397 | 362 ft | 1 kts | 250° |
| 2026-04-17 07:20 | 50.04646 | 8.56336 | 368 ft | 11 kts | 254° |
| 2026-04-17 07:21 | 50.04607 | 8.56179 | 368 ft | 20 kts | 249° |
| 2026-04-17 07:21 | 50.04546 | 8.55977 | 369 ft | 21 kts | 222° |
| 2026-04-17 07:21 | 50.04409 | 8.55909 | 370 ft | 21 kts | 180° |
| 2026-04-17 07:21 | 50.04260 | 8.55944 | 366 ft | 21 kts | 204° |
| 2026-04-17 07:22 | 50.04195 | 8.55748 | 358 ft | 22 kts | 249° |
| 2026-04-17 07:22 | 50.04137 | 8.55504 | 363 ft | 25 kts | 249° |
| 2026-04-17 07:22 | 50.04072 | 8.55238 | 361 ft | 27 kts | 249° |
| 2026-04-17 07:22 | 50.04004 | 8.54956 | 367 ft | 29 kts | 249° |
| 2026-04-17 07:23 | 50.03928 | 8.54639 | 355 ft | 33 kts | 249° |
| 2026-04-17 07:23 | 50.03830 | 8.54303 | 356 ft | 35 kts | 237° |
| 2026-04-17 07:23 | 50.03735 | 8.53941 | 360 ft | 37 kts | 250° |
| 2026-04-17 07:23 | 50.03641 | 8.53554 | 352 ft | 39 kts | 249° |
| 2026-04-17 07:24 | 50.03561 | 8.53227 | 353 ft | 19 kts | 249° |
| 2026-04-17 07:24 | 50.03510 | 8.53021 | 344 ft | 22 kts | 249° |
| 2026-04-17 07:24 | 50.03450 | 8.52777 | 342 ft | 26 kts | 249° |
| 2026-04-17 07:24 | 50.03405 | 8.52612 | 357 ft | 11 kts | 231° |
| 2026-04-17 07:25 | 50.03351 | 8.52592 | 341 ft | 9 kts | 180° |
| 2026-04-17 07:25 | 50.03259 | 8.52593 | 350 ft | 29 kts | 179° |
| 2026-04-17 07:25 | 50.02774 | 8.52599 | 350 ft | 109 kts | 180° |
| 2026-04-17 07:25 | 50.01783 | 8.52604 | 375 ft | 172 kts | 180° |
| 2026-04-17 07:26 | 50.00572 | 8.52560 | 1111 ft | 174 kts | 180° |
| 2026-04-17 07:26 | 49.99320 | 8.52520 | 1880 ft | 189 kts | 181° |
| 2026-04-17 07:26 | 49.98015 | 8.52477 | 2529 ft | 191 kts | 179° |
| 2026-04-17 07:26 | 49.96686 | 8.52539 | 3186 ft | 192 kts | 177° |
| 2026-04-17 07:27 | 49.95330 | 8.52686 | 3768 ft | 199 kts | 176° |
| 2026-04-17 07:27 | 49.93907 | 8.52861 | 4274 ft | 211 kts | 176° |
| 2026-04-17 07:27 | 49.92407 | 8.53022 | 4826 ft | 221 kts | 177° |
| 2026-04-17 07:27 | 49.90836 | 8.53126 | 5360 ft | 232 kts | 180° |
| 2026-04-17 07:28 | 49.89165 | 8.53056 | 5892 ft | 247 kts | 184° |
| 2026-04-17 07:28 | 49.87430 | 8.52676 | 6461 ft | 258 kts | 194° |
| 2026-04-17 07:28 | 49.85808 | 8.51428 | 7059 ft | 267 kts | 218° |
| 2026-04-17 07:28 | 49.84605 | 8.49226 | 7739 ft | 272 kts | 242° |
| 2026-04-17 07:29 | 49.83817 | 8.46590 | 8476 ft | 276 kts | 246° |
| 2026-04-17 07:29 | 49.83029 | 8.43853 | 9231 ft | 280 kts | 246° |
| 2026-04-17 07:29 | 49.82239 | 8.41077 | 9993 ft | 284 kts | 247° |
| 2026-04-17 07:29 | 49.81474 | 8.38239 | 10606 ft | 291 kts | 251° |
| 2026-04-17 07:30 | 49.81012 | 8.35105 | 10922 ft | 308 kts | 265° |
| 2026-04-17 07:30 | 49.81129 | 8.31727 | 11234 ft | 323 kts | 282° |
| 2026-04-17 07:30 | 49.81934 | 8.28410 | 11532 ft | 338 kts | 300° |
| 2026-04-17 07:30 | 49.83441 | 8.25536 | 11849 ft | 351 kts | 319° |
| 2026-04-17 07:31 | 49.85525 | 8.23534 | 12339 ft | 357 kts | 336° |
| 2026-04-17 07:31 | 49.87746 | 8.21874 | 12883 ft | 360 kts | 328° |
| 2026-04-17 07:31 | 49.89788 | 8.19615 | 13507 ft | 362 kts | 321° |
| 2026-04-17 07:31 | 49.91763 | 8.17146 | 14080 ft | 366 kts | 320° |
| 2026-04-17 07:32 | 49.93739 | 8.14632 | 14590 ft | 369 kts | 320° |
| 2026-04-17 07:32 | 49.95727 | 8.12096 | 15137 ft | 371 kts | 320° |
| 2026-04-17 07:32 | 49.97720 | 8.09550 | 15660 ft | 373 kts | 320° |
| 2026-04-17 07:32 | 49.99738 | 8.06971 | 16222 ft | 376 kts | 320° |
| 2026-04-17 07:33 | 50.01762 | 8.04380 | 16749 ft | 378 kts | 320° |
| 2026-04-17 07:33 | 50.03799 | 8.01771 | 17296 ft | 381 kts | 320° |
| 2026-04-17 07:33 | 50.05849 | 7.99144 | 17792 ft | 383 kts | 320° |
| 2026-04-17 07:33 | 50.07884 | 7.96531 | 18303 ft | 386 kts | 320° |
| 2026-04-17 07:34 | 50.09962 | 7.93860 | 18776 ft | 388 kts | 320° |
| 2026-04-17 07:34 | 50.12054 | 7.91170 | 19206 ft | 391 kts | 320° |
| 2026-04-17 07:34 | 50.14153 | 7.88467 | 19662 ft | 393 kts | 320° |
| 2026-04-17 07:34 | 50.16267 | 7.85741 | 20119 ft | 394 kts | 319° |
| 2026-04-17 07:35 | 50.18382 | 7.83010 | 20622 ft | 395 kts | 319° |
| 2026-04-17 07:35 | 50.20504 | 7.80268 | 21014 ft | 399 kts | 319° |
| 2026-04-17 07:35 | 50.22649 | 7.77492 | 21356 ft | 403 kts | 319° |
| 2026-04-17 07:35 | 50.24853 | 7.74769 | 21785 ft | 405 kts | 323° |
| 2026-04-17 07:36 | 50.27275 | 7.72590 | 22196 ft | 409 kts | 333° |
| 2026-04-17 07:36 | 50.29875 | 7.70757 | 22618 ft | 411 kts | 334° |
| 2026-04-17 07:36 | 50.32509 | 7.68970 | 23013 ft | 414 kts | 334° |
| 2026-04-17 07:36 | 50.35157 | 7.67171 | 23434 ft | 416 kts | 334° |
| 2026-04-17 07:37 | 50.37819 | 7.65359 | 23826 ft | 418 kts | 334° |
| 2026-04-17 07:37 | 50.40494 | 7.63528 | 24171 ft | 420 kts | 334° |
| 2026-04-17 07:37 | 50.43172 | 7.61687 | 24565 ft | 421 kts | 334° |
| 2026-04-17 07:37 | 50.45858 | 7.59838 | 24906 ft | 422 kts | 334° |
| 2026-04-17 07:38 | 50.48551 | 7.57982 | 25233 ft | 424 kts | 334° |
| 2026-04-17 07:38 | 50.51263 | 7.56110 | 25571 ft | 426 kts | 334° |
| 2026-04-17 07:38 | 50.53944 | 7.54252 | 25917 ft | 428 kts | 334° |
| 2026-04-17 07:38 | 50.56587 | 7.52106 | 26275 ft | 428 kts | 327° |
| 2026-04-17 07:39 | 50.59113 | 7.49614 | 26651 ft | 430 kts | 325° |
| 2026-04-17 07:39 | 50.61628 | 7.47041 | 27041 ft | 432 kts | 325° |
| 2026-04-17 07:39 | 50.64153 | 7.44448 | 27381 ft | 435 kts | 325° |
| 2026-04-17 07:39 | 50.66694 | 7.41838 | 27838 ft | 436 kts | 325° |
| 2026-04-17 07:40 | 50.69241 | 7.39220 | 28288 ft | 438 kts | 325° |
| 2026-04-17 07:40 | 50.71736 | 7.36448 | 28722 ft | 440 kts | 320° |
| 2026-04-17 07:40 | 50.73975 | 7.33156 | 29139 ft | 441 kts | 311° |
| 2026-04-17 07:40 | 50.75848 | 7.29321 | 29559 ft | 443 kts | 302° |
| 2026-04-17 07:41 | 50.77376 | 7.25164 | 30004 ft | 445 kts | 298° |
| 2026-04-17 07:41 | 50.78833 | 7.20832 | 30426 ft | 448 kts | 297° |
| 2026-04-17 07:41 | 50.80252 | 7.16438 | 30807 ft | 450 kts | 297° |
| 2026-04-17 07:41 | 50.81660 | 7.12014 | 31208 ft | 452 kts | 297° |
| 2026-04-17 07:42 | 50.83073 | 7.07569 | 31582 ft | 453 kts | 297° |
| 2026-04-17 07:42 | 50.84496 | 7.03108 | 31935 ft | 456 kts | 297° |
| 2026-04-17 07:42 | 50.85933 | 6.98623 | 32254 ft | 458 kts | 297° |
| 2026-04-17 07:42 | 50.87382 | 6.94120 | 32624 ft | 459 kts | 297° |
| 2026-04-17 07:43 | 50.88812 | 6.89690 | 33148 ft | 456 kts | 297° |
| 2026-04-17 07:43 | 50.90248 | 6.85224 | 33681 ft | 454 kts | 297° |
| 2026-04-17 07:43 | 50.91673 | 6.80778 | 34211 ft | 452 kts | 297° |
| 2026-04-17 07:43 | 50.93092 | 6.76343 | 34655 ft | 450 kts | 297° |
| 2026-04-17 07:44 | 50.94499 | 6.71937 | 35080 ft | 448 kts | 297° |
| 2026-04-17 07:44 | 50.95908 | 6.67517 | 35510 ft | 447 kts | 297° |
| 2026-04-17 07:44 | 50.97308 | 6.63122 | 35913 ft | 446 kts | 296° |
| 2026-04-17 07:44 | 50.98703 | 6.58734 | 36300 ft | 446 kts | 296° |
| 2026-04-17 07:45 | 51.00080 | 6.54397 | 36643 ft | 446 kts | 296° |
| 2026-04-17 07:45 | 51.01472 | 6.50000 | 37021 ft | 445 kts | 296° |
| 2026-04-17 07:45 | 51.02860 | 6.45612 | 37408 ft | 444 kts | 295° |
| 2026-04-17 07:45 | 51.04242 | 6.41234 | 37790 ft | 443 kts | 295° |
| 2026-04-17 07:46 | 51.05617 | 6.36867 | 38146 ft | 442 kts | 295° |
| 2026-04-17 07:46 | 51.06991 | 6.32501 | 38512 ft | 441 kts | 295° |
| 2026-04-17 07:46 | 51.08356 | 6.28152 | 38852 ft | 440 kts | 295° |
| 2026-04-17 07:46 | 51.09721 | 6.23797 | 39103 ft | 440 kts | 295° |
| 2026-04-17 07:47 | 51.11084 | 6.19438 | 39284 ft | 441 kts | 295° |
| 2026-04-17 07:47 | 51.12433 | 6.15120 | 39438 ft | 442 kts | 295° |
| 2026-04-17 07:47 | 51.13686 | 6.10643 | 39590 ft | 443 kts | 289° |
| 2026-04-17 07:47 | 51.14631 | 6.05982 | 39770 ft | 443 kts | 285° |
| 2026-04-17 07:48 | 51.15462 | 6.01259 | 39948 ft | 443 kts | 284° |
| 2026-04-17 07:48 | 51.16252 | 5.96514 | 40115 ft | 444 kts | 284° |
| 2026-04-17 07:48 | 51.17022 | 5.91736 | 40219 ft | 446 kts | 283° |
| 2026-04-17 07:48 | 51.17785 | 5.86948 | 40235 ft | 445 kts | 283° |
| 2026-04-17 07:49 | 51.19420 | 5.77436 | 40241 ft | 446 kts | 287° |
| 2026-04-17 07:49 | 51.21502 | 5.68192 | 40239 ft | 446 kts | 289° |
| 2026-04-17 07:50 | 51.23652 | 5.58903 | 40234 ft | 446 kts | 289° |
| 2026-04-17 07:50 | 51.25727 | 5.49573 | 40236 ft | 446 kts | 288° |
| 2026-04-17 07:51 | 51.27756 | 5.40213 | 40239 ft | 446 kts | 288° |
| 2026-04-17 07:51 | 51.29756 | 5.30900 | 40239 ft | 446 kts | 288° |
| 2026-04-17 07:52 | 51.31764 | 5.21516 | 40237 ft | 446 kts | 288° |
| 2026-04-17 07:52 | 51.33766 | 5.12124 | 40239 ft | 446 kts | 288° |
| 2026-04-17 07:53 | 51.35762 | 5.02727 | 40238 ft | 446 kts | 288° |
| 2026-04-17 07:53 | 51.37739 | 4.93374 | 40241 ft | 446 kts | 288° |
| 2026-04-17 07:54 | 51.39720 | 4.83961 | 40238 ft | 446 kts | 287° |
| 2026-04-17 07:54 | 51.41694 | 4.74533 | 40239 ft | 446 kts | 287° |
| 2026-04-17 07:55 | 51.43657 | 4.65113 | 40218 ft | 446 kts | 287° |
| 2026-04-17 07:55 | 51.45600 | 4.55749 | 40214 ft | 446 kts | 287° |
| 2026-04-17 07:56 | 51.47549 | 4.46311 | 40210 ft | 446 kts | 287° |
| 2026-04-17 07:56 | 51.49488 | 4.36872 | 40228 ft | 446 kts | 287° |
| 2026-04-17 07:57 | 51.51418 | 4.27436 | 40211 ft | 445 kts | 287° |
| 2026-04-17 07:57 | 51.53339 | 4.17996 | 40213 ft | 445 kts | 287° |
| 2026-04-17 07:58 | 51.55241 | 4.08608 | 40209 ft | 445 kts | 287° |
| 2026-04-17 07:58 | 51.57147 | 3.99156 | 40206 ft | 445 kts | 287° |
| 2026-04-17 07:59 | 51.59046 | 3.89690 | 40208 ft | 445 kts | 287° |
| 2026-04-17 07:59 | 51.60923 | 3.80290 | 40202 ft | 445 kts | 287° |
| 2026-04-17 08:00 | 51.62806 | 3.70815 | 40208 ft | 444 kts | 287° |
| 2026-04-17 08:00 | 51.64680 | 3.61336 | 40208 ft | 444 kts | 287° |
| 2026-04-17 08:01 | 51.66545 | 3.51856 | 40206 ft | 444 kts | 286° |
| 2026-04-17 08:01 | 51.68403 | 3.42365 | 40203 ft | 444 kts | 286° |
| 2026-04-17 08:02 | 51.70243 | 3.32923 | 40203 ft | 444 kts | 286° |
| 2026-04-17 08:02 | 51.72046 | 3.23401 | 40205 ft | 444 kts | 283° |
| 2026-04-17 08:03 | 51.72784 | 3.13562 | 40201 ft | 443 kts | 269° |
| 2026-04-17 08:03 | 51.72193 | 3.03672 | 40203 ft | 444 kts | 263° |
| 2026-04-17 08:04 | 51.71328 | 2.93880 | 40203 ft | 444 kts | 262° |
| 2026-04-17 08:04 | 51.70424 | 2.84041 | 40202 ft | 443 kts | 262° |
| 2026-04-17 08:05 | 51.69535 | 2.74211 | 40209 ft | 443 kts | 263° |
| 2026-04-17 08:05 | 51.68657 | 2.64393 | 40200 ft | 443 kts | 263° |
| 2026-04-17 08:06 | 51.67781 | 2.54577 | 40199 ft | 443 kts | 263° |
| 2026-04-17 08:06 | 51.66895 | 2.44827 | 40191 ft | 443 kts | 262° |
| 2026-04-17 08:07 | 51.65994 | 2.35029 | 40202 ft | 441 kts | 262° |
| 2026-04-17 08:07 | 51.65089 | 2.25257 | 40186 ft | 441 kts | 262° |
| 2026-04-17 08:08 | 51.64178 | 2.15507 | 40184 ft | 441 kts | 262° |
| 2026-04-17 08:08 | 51.63269 | 2.05816 | 40185 ft | 441 kts | 262° |
| 2026-04-17 08:09 | 51.62366 | 1.96063 | 40189 ft | 441 kts | 262° |
| 2026-04-17 08:09 | 51.61464 | 1.86317 | 40182 ft | 440 kts | 262° |
| 2026-04-17 08:10 | 51.60707 | 1.78243 | 40184 ft | 439 kts | 262° |
| 2026-04-17 08:10 | 51.59782 | 1.68543 | 40177 ft | 439 kts | 262° |
| 2026-04-17 08:11 | 51.59291 | 1.57195 | 40185 ft | 438 kts | 272° |
| 2026-04-17 08:11 | 51.59627 | 1.47401 | 40173 ft | 439 kts | 274° |
| 2026-04-17 08:12 | 51.59988 | 1.39273 | 40180 ft | 439 kts | 274° |
| 2026-04-17 08:12 | 51.60423 | 1.29488 | 40176 ft | 438 kts | 273° |
| 2026-04-17 08:13 | 51.60839 | 1.19713 | 40167 ft | 438 kts | 273° |
| 2026-04-17 08:14 | 51.61422 | 1.05037 | 40158 ft | 438 kts | 273° |
| 2026-04-17 08:14 | 51.61799 | 0.95307 | 40181 ft | 438 kts | 272° |
| 2026-04-17 08:15 | 51.62178 | 0.85523 | 40177 ft | 438 kts | 272° |
| 2026-04-17 08:15 | 51.62541 | 0.75732 | 40185 ft | 438 kts | 272° |
| 2026-04-17 08:16 | 51.62899 | 0.65943 | 40189 ft | 438 kts | 272° |
| 2026-04-17 08:16 | 51.63244 | 0.56154 | 40189 ft | 438 kts | 272° |
| 2026-04-17 08:17 | 51.63587 | 0.46357 | 40184 ft | 438 kts | 272° |
| 2026-04-17 08:17 | 51.63915 | 0.36571 | 40166 ft | 438 kts | 272° |
| 2026-04-17 08:18 | 51.64276 | 0.26783 | 40150 ft | 438 kts | 275° |
| 2026-04-17 08:18 | 51.65664 | 0.17286 | 40155 ft | 442 kts | 289° |
| 2026-04-17 08:19 | 51.68738 | 0.08650 | 40156 ft | 450 kts | 305° |
| 2026-04-17 08:19 | 51.73001 | 0.01192 | 40163 ft | 454 kts | 310° |
| 2026-04-17 08:20 | 51.77453 | -0.06051 | 40112 ft | 455 kts | 310° |
| 2026-04-17 08:20 | 51.81890 | -0.13278 | 40123 ft | 456 kts | 309° |
| 2026-04-17 08:21 | 51.86323 | -0.20592 | 40157 ft | 456 kts | 309° |
| 2026-04-17 08:21 | 51.90747 | -0.27949 | 40156 ft | 456 kts | 309° |
| 2026-04-17 08:22 | 51.95164 | -0.35321 | 40156 ft | 456 kts | 309° |
| 2026-04-17 08:22 | 51.99575 | -0.42702 | 40147 ft | 455 kts | 309° |
| 2026-04-17 08:22 | 52.01766 | -0.46370 | 39656 ft | 451 kts | 309° |
| 2026-04-17 08:23 | 52.03918 | -0.49981 | 38927 ft | 453 kts | 309° |
| 2026-04-17 08:23 | 52.06108 | -0.53664 | 38109 ft | 453 kts | 308° |
| 2026-04-17 08:23 | 52.08298 | -0.57354 | 37249 ft | 453 kts | 308° |
| 2026-04-17 08:23 | 52.10481 | -0.61035 | 36538 ft | 451 kts | 308° |
| 2026-04-17 08:24 | 52.12658 | -0.64710 | 35850 ft | 450 kts | 308° |
| 2026-04-17 08:24 | 52.14825 | -0.68377 | 35137 ft | 450 kts | 308° |
| 2026-04-17 08:24 | 52.16998 | -0.72058 | 34346 ft | 451 kts | 307° |
| 2026-04-17 08:24 | 52.19146 | -0.75707 | 33476 ft | 453 kts | 307° |
| 2026-04-17 08:25 | 52.21328 | -0.79419 | 32611 ft | 454 kts | 307° |
| 2026-04-17 08:25 | 52.23546 | -0.83090 | 31759 ft | 457 kts | 311° |
| 2026-04-17 08:25 | 52.26046 | -0.86334 | 30967 ft | 464 kts | 319° |
| 2026-04-17 08:25 | 52.28752 | -0.89256 | 30091 ft | 468 kts | 321° |
| 2026-04-17 08:26 | 52.31523 | -0.92094 | 29065 ft | 471 kts | 322° |
| 2026-04-17 08:26 | 52.34312 | -0.94868 | 28378 ft | 467 kts | 322° |
| 2026-04-17 08:26 | 52.37073 | -0.97582 | 27754 ft | 461 kts | 322° |
| 2026-04-17 08:26 | 52.39808 | -1.00270 | 27171 ft | 456 kts | 322° |
| 2026-04-17 08:27 | 52.42474 | -1.02904 | 26523 ft | 452 kts | 322° |
| 2026-04-17 08:27 | 52.45150 | -1.05567 | 25860 ft | 448 kts | 322° |
| 2026-04-17 08:27 | 52.47796 | -1.08214 | 25244 ft | 444 kts | 322° |
| 2026-04-17 08:27 | 52.50420 | -1.10848 | 24657 ft | 440 kts | 322° |
| 2026-04-17 08:28 | 52.53019 | -1.13464 | 24075 ft | 437 kts | 322° |
| 2026-04-17 08:28 | 52.55604 | -1.16072 | 23427 ft | 435 kts | 322° |
| 2026-04-17 08:28 | 52.58175 | -1.18665 | 22777 ft | 433 kts | 322° |
| 2026-04-17 08:28 | 52.60730 | -1.21249 | 22176 ft | 429 kts | 322° |
| 2026-04-17 08:29 | 52.63265 | -1.23815 | 21581 ft | 426 kts | 322° |
| 2026-04-17 08:29 | 52.65745 | -1.26329 | 21003 ft | 422 kts | 322° |
| 2026-04-17 08:29 | 52.68233 | -1.28853 | 20413 ft | 419 kts | 322° |
| 2026-04-17 08:29 | 52.70710 | -1.31369 | 19841 ft | 416 kts | 322° |
| 2026-04-17 08:30 | 52.73216 | -1.33922 | 19458 ft | 430 kts | 322° |
| 2026-04-17 08:30 | 52.75771 | -1.36534 | 19066 ft | 434 kts | 323° |
| 2026-04-17 08:30 | 52.78334 | -1.39150 | 18437 ft | 432 kts | 323° |
| 2026-04-17 08:30 | 52.80881 | -1.41750 | 17838 ft | 429 kts | 323° |
| 2026-04-17 08:31 | 52.83407 | -1.44331 | 17325 ft | 425 kts | 323° |
| 2026-04-17 08:31 | 52.85879 | -1.46863 | 16822 ft | 422 kts | 323° |
| 2026-04-17 08:31 | 52.88364 | -1.49412 | 16343 ft | 418 kts | 323° |
| 2026-04-17 08:31 | 52.90829 | -1.51945 | 15871 ft | 415 kts | 323° |
| 2026-04-17 08:32 | 52.93274 | -1.54460 | 15349 ft | 413 kts | 323° |
| 2026-04-17 08:32 | 52.95707 | -1.56967 | 14865 ft | 410 kts | 323° |
| 2026-04-17 08:32 | 52.98119 | -1.59456 | 14380 ft | 407 kts | 324° |
| 2026-04-17 08:32 | 53.00503 | -1.61917 | 14015 ft | 399 kts | 324° |
| 2026-04-17 08:33 | 53.02815 | -1.64302 | 13747 ft | 383 kts | 323° |
| 2026-04-17 08:33 | 53.05004 | -1.66675 | 13456 ft | 366 kts | 318° |
| 2026-04-17 08:33 | 53.06746 | -1.69470 | 13036 ft | 334 kts | 307° |
| 2026-04-17 08:33 | 53.08195 | -1.72259 | 12618 ft | 312 kts | 305° |
| 2026-04-17 08:34 | 53.09552 | -1.74918 | 12249 ft | 292 kts | 305° |
| 2026-04-17 08:34 | 53.10835 | -1.77432 | 11797 ft | 279 kts | 304° |
| 2026-04-17 08:34 | 53.12072 | -1.79843 | 11371 ft | 267 kts | 305° |
| 2026-04-17 08:34 | 53.13262 | -1.82171 | 11108 ft | 263 kts | 304° |
| 2026-04-17 08:35 | 53.14434 | -1.84470 | 10712 ft | 257 kts | 305° |
| 2026-04-17 08:35 | 53.15605 | -1.86764 | 10466 ft | 261 kts | 305° |
| 2026-04-17 08:35 | 53.16779 | -1.89062 | 10282 ft | 259 kts | 305° |
| 2026-04-17 08:35 | 53.17926 | -1.91299 | 9969 ft | 256 kts | 305° |
| 2026-04-17 08:36 | 53.19081 | -1.93552 | 9545 ft | 255 kts | 305° |
| 2026-04-17 08:36 | 53.20235 | -1.95797 | 9143 ft | 254 kts | 305° |
| 2026-04-17 08:36 | 53.21381 | -1.98028 | 8746 ft | 252 kts | 305° |
| 2026-04-17 08:36 | 53.22517 | -2.00249 | 8372 ft | 251 kts | 305° |
| 2026-04-17 08:37 | 53.23646 | -2.02453 | 8015 ft | 249 kts | 305° |
| 2026-04-17 08:37 | 53.24891 | -2.04483 | 7595 ft | 256 kts | 321° |
| 2026-04-17 08:37 | 53.26596 | -2.05497 | 7132 ft | 270 kts | 349° |
| 2026-04-17 08:37 | 53.28477 | -2.05095 | 6706 ft | 279 kts | 18° |
| 2026-04-17 08:38 | 53.30079 | -2.03371 | 6409 ft | 279 kts | 43° |
| 2026-04-17 08:38 | 53.31372 | -2.00994 | 6059 ft | 275 kts | 49° |
| 2026-04-17 08:38 | 53.32597 | -1.98532 | 5605 ft | 276 kts | 50° |
| 2026-04-17 08:38 | 53.33824 | -1.96059 | 5177 ft | 276 kts | 50° |
| 2026-04-17 08:39 | 53.35045 | -1.93594 | 4854 ft | 274 kts | 50° |
| 2026-04-17 08:39 | 53.36271 | -1.91158 | 4494 ft | 273 kts | 48° |
| 2026-04-17 08:39 | 53.37773 | -1.89283 | 4145 ft | 268 kts | 19° |
| 2026-04-17 08:39 | 53.39561 | -1.88795 | 4038 ft | 259 kts | 349° |
| 2026-04-17 08:40 | 53.41214 | -1.89657 | 3989 ft | 248 kts | 326° |
| 2026-04-17 08:40 | 53.42701 | -1.91098 | 3993 ft | 247 kts | 321° |
| 2026-04-17 08:40 | 53.44166 | -1.92605 | 3987 ft | 248 kts | 321° |
| 2026-04-17 08:40 | 53.45631 | -1.94121 | 3988 ft | 243 kts | 321° |
| 2026-04-17 08:41 | 53.47014 | -1.95657 | 3984 ft | 234 kts | 312° |
| 2026-04-17 08:41 | 53.47835 | -1.97831 | 3991 ft | 214 kts | 275° |
| 2026-04-17 08:41 | 53.47754 | -2.00222 | 3993 ft | 204 kts | 252° |
| 2026-04-17 08:41 | 53.47215 | -2.02412 | 3904 ft | 204 kts | 236° |
| 2026-04-17 08:42 | 53.46369 | -2.04260 | 3627 ft | 202 kts | 229° |
| 2026-04-17 08:42 | 53.45486 | -2.06084 | 3318 ft | 201 kts | 231° |
| 2026-04-17 08:42 | 53.44639 | -2.07920 | 3013 ft | 197 kts | 229° |
| 2026-04-17 08:42 | 53.43794 | -2.09709 | 2751 ft | 193 kts | 229° |
| 2026-04-17 08:43 | 53.42988 | -2.11411 | 2491 ft | 178 kts | 227° |
| 2026-04-17 08:43 | 53.42251 | -2.12969 | 2275 ft | 163 kts | 227° |
| 2026-04-17 08:43 | 53.41576 | -2.14395 | 2051 ft | 150 kts | 226° |
| 2026-04-17 08:43 | 53.40969 | -2.15716 | 1803 ft | 136 kts | 227° |
| 2026-04-17 08:44 | 53.40443 | -2.16924 | 1608 ft | 126 kts | 226° |
| 2026-04-17 08:44 | 53.39921 | -2.18070 | 1422 ft | 123 kts | 223° |
| 2026-04-17 08:44 | 53.39380 | -2.19167 | 1291 ft | 122 kts | 225° |
| 2026-04-17 08:44 | 53.38849 | -2.20295 | 1177 ft | 126 kts | 228° |
| 2026-04-17 08:45 | 53.38292 | -2.21498 | 972 ft | 133 kts | 226° |
| 2026-04-17 08:45 | 53.37683 | -2.22723 | 821 ft | 140 kts | 229° |
| 2026-04-17 08:45 | 53.37053 | -2.24066 | 585 ft | 148 kts | 227° |
| 2026-04-17 08:45 | 53.36429 | -2.25355 | 368 ft | 136 kts | 226° |
| 2026-04-17 08:46 | 53.35858 | -2.26498 | 259 ft | 121 kts | 231° |
| 2026-04-17 08:46 | 53.35449 | -2.27344 | 246 ft | 54 kts | 231° |
| 2026-04-17 08:46 | 53.35301 | -2.27689 | 239 ft | 35 kts | 243° |
| 2026-04-17 08:46 | 53.35246 | -2.28004 | 238 ft | 15 kts | 259° |
| 2026-04-17 08:47 | 53.35235 | -2.28163 | 238 ft | 0 kts | 284° |
| 2026-04-17 08:48 | 53.35260 | -2.28194 | 239 ft | 13 kts | 343° |
| 2026-04-17 08:48 | 53.35411 | -2.28156 | 239 ft | 26 kts | 10° |
| 2026-04-17 08:48 | 53.35563 | -2.28023 | 239 ft | 22 kts | 46° |
| 2026-04-17 08:48 | 53.35692 | -2.27883 | 239 ft | 23 kts | 8° |
| 2026-04-17 08:49 | 53.35741 | -2.27874 | 239 ft | 1 kts | 6° |
| 2026-04-17 08:49 | 53.35750 | -2.27872 | 239 ft | 3 kts | 6° |
| 2026-04-17 08:49 | 53.35754 | -2.27872 | 239 ft | 0 kts | 6° |
| 2026-04-17 08:49 | 53.35771 | -2.27869 | 239 ft | 5 kts | 6° |
| 2026-04-17 08:50 | 53.35820 | -2.27860 | 239 ft | 10 kts | 5° |
| 2026-04-17 08:50 | 53.35902 | -2.27848 | 239 ft | 14 kts | 2° |
| 2026-04-17 08:50 | 53.35988 | -2.27890 | 239 ft | 4 kts | 324° |
| 2026-04-17 08:50 | 53.35990 | -2.27893 | 239 ft | 0 kts | 321° |
| 2026-04-17 08:52 | 53.36022 | -2.27945 | 239 ft | 17 kts | 314° |
| 2026-04-17 08:52 | 53.36134 | -2.28142 | 239 ft | 27 kts | 314° |
| 2026-04-17 08:52 | 53.36259 | -2.28357 | 239 ft | 26 kts | 314° |
| 2026-04-17 08:53 | 53.36384 | -2.28520 | 239 ft | 19 kts | 356° |
| 2026-04-17 08:53 | 53.36505 | -2.28615 | 239 ft | 21 kts | 315° |
| 2026-04-17 08:53 | 53.36574 | -2.28743 | 239 ft | 10 kts | 311° |
| 2026-04-17 08:53 | 53.36610 | -2.28769 | 239 ft | 6 kts | 2° |
| 2026-04-17 08:54 | 53.36674 | -2.28708 | 239 ft | 15 kts | 45° |
| 2026-04-17 08:54 | 53.36740 | -2.28605 | 239 ft | 6 kts | 17° |
| 2026-04-17 08:54 | 53.36772 | -2.28629 | 239 ft | 7 kts | 327° |
| 2026-04-17 08:54 | 53.36797 | -2.28668 | 239 ft | 1 kts | 315° |
| 2026-04-17 08:55 | 53.36799 | -2.28672 | 239 ft | 0 kts | 315° |
| 2026-04-17 08:56 | 53.36802 | -2.28676 | 239 ft | 0 kts | 315° |